createdAt,value
2019-06-01T00:02:18.091Z,12.97
2019-06-01T00:04:49.475Z,12.63
2019-06-01T00:07:19.372Z,12.58
2019-06-01T00:09:49.623Z,11.60
2019-06-01T00:12:19.475Z,11.53
2019-06-01T00:14:50.787Z,12.37
2019-06-01T00:17:20.499Z,11.68
2019-06-01T00:19:50.361Z,11.95
2019-06-01T00:22:20.148Z,12.28
2019-06-01T00:24:50.120Z,12.20
2019-06-01T00:27:20.975Z,12.98
2019-06-01T00:29:50.622Z,12.37
2019-06-01T00:32:20.343Z,12.53
2019-06-01T00:34:50.069Z,11.93
2019-06-01T00:37:20.909Z,12.15
2019-06-01T00:39:52.415Z,10.93
2019-06-01T00:42:22.143Z,11.48
2019-06-01T00:44:52.504Z,11.20
2019-06-01T00:47:22.230Z,12.45
2019-06-01T00:49:53.081Z,12.33
2019-06-01T00:52:23.961Z,11.80
2019-06-01T00:54:53.714Z,12.20
2019-06-01T00:57:23.383Z,11.12
2019-06-01T00:59:54.705Z,11.83
2019-06-01T01:02:24.443Z,11.78
2019-06-01T01:05:02.129Z,11.30
2019-06-01T01:07:32.138Z,11.57
2019-06-01T01:10:01.883Z,11.03
2019-06-01T01:12:33.470Z,11.15
2019-06-01T01:15:04.297Z,11.53
2019-06-01T01:17:33.983Z,11.10
2019-06-01T01:20:05.052Z,10.15
2019-06-01T01:22:34.766Z,10.98
2019-06-01T01:25:06.316Z,11.48
2019-06-01T01:27:36.042Z,11.08
2019-06-01T01:30:07.209Z,11.38
2019-06-01T01:32:36.937Z,11.25
2019-06-01T01:35:08.180Z,10.88
2019-06-01T01:37:37.908Z,10.63
2019-06-01T01:40:07.723Z,11.57
2019-06-01T01:42:37.367Z,12.90
2019-06-01T01:45:08.751Z,10.25
2019-06-01T01:47:38.734Z,9.95
2019-06-01T01:50:09.245Z,12.75
2019-06-01T01:52:40.043Z,12.40
2019-06-01T01:55:09.759Z,12.10
2019-06-01T01:57:39.491Z,12.98
2019-06-01T02:00:11.823Z,12.23
2019-06-01T02:02:41.586Z,12.33
2019-06-01T02:05:11.503Z,10.65
2019-06-01T02:07:41.386Z,11.68
2019-06-01T02:10:11.515Z,13.20
2019-06-01T02:12:41.279Z,14.75
2019-06-01T02:15:11.112Z,12.88
2019-06-01T02:17:40.906Z,12.10
2019-06-01T02:20:10.735Z,13.45
2019-06-01T02:22:40.458Z,13.28
2019-06-01T02:25:11.740Z,11.53
2019-06-01T02:27:41.455Z,14.18
2019-06-01T02:30:12.783Z,15.23
2019-06-01T02:32:42.516Z,12.82
2019-06-01T02:35:12.354Z,12.63
2019-06-01T02:37:42.050Z,12.18
2019-06-01T02:40:12.994Z,12.93
2019-06-01T02:42:43.024Z,12.63
2019-06-01T02:45:14.999Z,11.90
2019-06-01T02:47:44.733Z,12.15
2019-06-01T02:50:14.543Z,14.35
2019-06-01T02:52:44.278Z,15.45
2019-06-01T02:55:18.732Z,16.57
2019-06-01T02:57:48.445Z,12.85
2019-06-01T03:00:21.127Z,13.68
2019-06-01T03:02:51.118Z,13.70
2019-06-01T03:05:20.883Z,15.30
2019-06-01T03:07:52.202Z,13.15
2019-06-01T03:10:21.956Z,14.68
2019-06-01T03:12:54.602Z,14.80
2019-06-01T03:15:26.628Z,15.32
2019-06-01T03:17:59.349Z,15.18
2019-06-01T03:20:30.923Z,15.05
2019-06-01T03:23:03.695Z,15.65
2019-06-01T03:25:34.061Z,14.65
2019-06-01T03:28:04.796Z,15.48
2019-06-01T03:30:45.519Z,15.23
2019-06-01T03:33:14.270Z,15.05
2019-06-01T03:35:44.298Z,15.32
2019-06-01T03:38:13.943Z,15.30
2019-06-01T03:40:43.669Z,14.47
2019-06-01T03:43:13.582Z,14.55
2019-06-01T03:45:43.347Z,14.47
2019-06-01T03:48:13.061Z,14.95
2019-06-01T03:50:43.846Z,14.80
2019-06-01T03:53:13.494Z,15.60
2019-06-01T03:55:43.152Z,15.53
2019-06-01T03:58:12.873Z,17.05
2019-06-01T04:00:42.510Z,17.42
2019-06-01T04:03:12.286Z,17.98
2019-06-01T04:05:41.994Z,18.60
2019-06-01T04:08:11.773Z,19.27
2019-06-01T04:10:41.429Z,16.90
2019-06-01T04:13:11.926Z,17.92
2019-06-01T04:15:41.776Z,19.27
2019-06-01T04:18:13.956Z,16.50
2019-06-01T04:20:42.867Z,16.52
2019-06-01T04:23:12.634Z,17.35
2019-06-01T04:25:42.354Z,19.00
2019-06-01T04:28:12.614Z,26.77
2019-06-01T04:30:42.529Z,23.00
2019-06-01T04:33:13.277Z,21.90
2019-06-01T04:35:43.123Z,22.55
2019-06-01T04:38:13.427Z,21.48
2019-06-01T04:40:43.215Z,24.07
2019-06-01T04:43:14.158Z,23.52
2019-06-01T04:45:43.997Z,23.57
2019-06-01T04:48:14.662Z,24.98
2019-06-01T04:50:44.503Z,25.62
2019-06-01T04:53:15.121Z,28.30
2019-06-01T04:55:44.913Z,30.33
2019-06-01T04:58:15.071Z,28.05
2019-06-01T05:00:44.870Z,26.68
2019-06-01T05:03:15.366Z,28.35
2019-06-01T05:05:46.151Z,28.25
2019-06-01T05:08:15.924Z,29.85
2019-06-01T05:10:45.647Z,28.12
2019-06-01T05:13:15.650Z,28.00
2019-06-01T05:15:45.390Z,27.67
2019-06-01T05:18:18.340Z,28.70
2019-06-01T05:20:46.485Z,28.75
2019-06-01T05:23:16.967Z,28.60
2019-06-01T05:25:46.770Z,29.40
2019-06-01T05:28:17.471Z,29.98
2019-06-01T05:30:48.372Z,28.50
2019-06-01T05:33:35.279Z,27.73
2019-06-01T05:35:49.457Z,29.00
2019-06-01T05:38:19.183Z,27.93
2019-06-01T05:40:48.948Z,29.12
2019-06-01T05:43:21.133Z,27.02
2019-06-01T05:45:50.039Z,28.20
2019-06-01T05:48:24.802Z,27.70
2019-06-01T05:50:51.080Z,28.98
2019-06-01T05:53:20.812Z,26.62
2019-06-01T05:55:50.530Z,26.33
2019-06-01T05:58:21.659Z,26.55
2019-06-01T06:00:51.506Z,25.32
2019-06-01T06:03:32.026Z,24.35
2019-06-01T06:05:52.599Z,25.10
2019-06-01T06:08:22.328Z,23.60
2019-06-01T06:10:52.090Z,24.80
2019-06-01T06:13:21.814Z,23.52
2019-06-01T06:15:51.542Z,22.55
2019-06-01T06:18:21.966Z,23.30
2019-06-01T06:20:51.785Z,24.32
2019-06-01T06:23:22.712Z,21.87
2019-06-01T06:25:52.554Z,20.35
2019-06-01T06:28:22.952Z,20.00
2019-06-01T06:30:53.709Z,20.68
2019-06-01T06:33:23.728Z,19.32
2019-06-01T06:35:53.740Z,18.02
2019-06-01T06:38:24.058Z,19.52
2019-06-01T06:40:55.106Z,17.52
2019-06-01T06:43:32.632Z,16.93
2019-06-01T06:45:56.205Z,17.32
2019-06-01T06:48:25.963Z,16.87
2019-06-01T06:50:55.689Z,17.85
2019-06-01T06:53:34.477Z,16.90
2019-06-01T06:55:56.751Z,17.20
2019-06-01T06:58:26.609Z,15.08
2019-06-01T07:00:56.359Z,15.48
2019-06-01T07:03:27.136Z,17.52
2019-06-01T07:05:56.898Z,14.78
2019-06-01T07:08:26.632Z,13.55
2019-06-01T07:10:56.336Z,11.10
2019-06-01T07:13:26.080Z,17.15
2019-06-01T07:15:55.779Z,12.68
2019-06-01T07:18:25.792Z,12.55
2019-06-01T07:20:55.564Z,9.50
2019-06-01T07:23:25.919Z,9.83
2019-06-01T07:25:55.748Z,8.38
2019-06-01T07:28:26.269Z,7.83
2019-06-01T07:30:55.995Z,8.23
2019-06-01T07:33:26.439Z,8.68
2019-06-01T07:35:56.164Z,8.28
2019-06-01T07:38:26.801Z,7.95
2019-06-01T07:40:57.412Z,8.60
2019-06-01T07:43:27.164Z,7.93
2019-06-01T07:45:56.883Z,8.10
2019-06-01T07:48:27.114Z,7.25
2019-06-01T07:50:56.909Z,7.72
2019-06-01T07:53:27.424Z,7.97
2019-06-01T07:55:57.271Z,8.90
2019-06-01T07:58:26.987Z,7.92
2019-06-01T08:01:08.066Z,7.72
2019-06-01T08:03:39.063Z,7.87
2019-06-01T08:06:08.817Z,6.67
2019-06-01T08:08:38.451Z,7.17
2019-06-01T08:11:08.171Z,6.67
2019-06-01T08:13:37.884Z,5.90
2019-06-01T08:16:07.594Z,7.25
2019-06-01T08:18:38.447Z,6.65
2019-06-01T08:21:09.159Z,7.00
2019-06-01T08:23:40.188Z,6.92
2019-06-01T08:26:10.899Z,7.70
2019-06-01T08:28:40.648Z,5.92
2019-06-01T08:31:10.361Z,6.53
2019-06-01T08:33:40.101Z,6.72
2019-06-01T08:36:10.076Z,6.72
2019-06-01T08:38:39.838Z,6.87
2019-06-01T08:41:09.542Z,6.92
2019-06-01T08:43:39.263Z,6.78
2019-06-01T08:46:08.982Z,6.55
2019-06-01T08:48:38.706Z,6.58
2019-06-01T08:51:08.459Z,6.10
2019-06-01T08:53:38.172Z,6.22
2019-06-01T08:56:07.948Z,6.12
2019-06-01T08:58:37.915Z,5.40
2019-06-01T09:01:07.631Z,5.10
2019-06-01T09:03:45.540Z,6.17
2019-06-01T09:06:08.723Z,5.33
2019-06-01T09:08:38.430Z,5.53
2019-06-01T09:11:08.200Z,5.47
2019-06-01T09:13:37.926Z,5.47
2019-06-01T09:16:07.644Z,5.15
2019-06-01T09:18:37.362Z,5.47
2019-06-01T09:21:07.067Z,5.05
2019-06-01T09:23:37.577Z,5.40
2019-06-01T09:26:07.536Z,5.28
2019-06-01T09:28:37.299Z,4.60
2019-06-01T09:31:07.003Z,5.00
2019-06-01T09:33:36.992Z,4.87
2019-06-01T09:36:07.681Z,4.55
2019-06-01T09:38:39.444Z,5.12
2019-06-01T09:41:09.168Z,4.83
2019-06-01T09:43:38.914Z,4.83
2019-06-01T09:46:08.623Z,5.37
2019-06-01T09:48:38.618Z,5.15
2019-06-01T09:51:08.331Z,4.95
2019-06-01T09:53:41.067Z,5.17
2019-06-01T09:56:10.781Z,4.45
2019-06-01T09:58:42.523Z,4.65
2019-06-01T10:01:12.239Z,4.55
2019-06-01T10:03:41.974Z,4.53
2019-06-01T10:06:13.995Z,3.98
2019-06-01T10:11:12.132Z,5.30
2019-06-01T10:13:42.598Z,4.95
2019-06-01T10:16:12.460Z,4.13
2019-06-01T10:18:43.128Z,4.97
2019-06-01T10:21:13.044Z,4.58
2019-06-01T10:23:42.884Z,4.42
2019-06-01T10:26:12.565Z,4.83
2019-06-01T10:28:42.282Z,4.72
2019-06-01T10:31:11.993Z,3.95
2019-06-01T10:33:43.205Z,4.62
2019-06-01T10:38:45.392Z,4.62
2019-06-01T10:41:15.096Z,4.25
2019-06-01T10:43:44.858Z,17.90
2019-06-01T10:46:14.593Z,5.97
2019-06-01T10:48:44.307Z,16.00
2019-06-01T10:51:14.055Z,6.00
2019-06-01T10:53:43.938Z,5.72
2019-06-01T10:56:13.676Z,4.90
2019-06-01T10:58:58.790Z,4.78
2019-06-01T11:01:16.760Z,5.53
2019-06-01T11:03:47.223Z,5.95
2019-06-01T11:06:16.988Z,5.42
2019-06-01T11:08:46.694Z,4.85
2019-06-01T11:11:16.692Z,6.47
2019-06-01T11:13:46.417Z,5.20
2019-06-01T11:16:16.131Z,4.55
2019-06-01T11:18:45.893Z,5.53
2019-06-01T11:21:15.632Z,5.80
2019-06-01T11:23:46.683Z,4.65
2019-06-01T11:28:45.432Z,4.85
2019-06-01T11:31:15.219Z,4.65
2019-06-01T11:33:44.934Z,5.35
2019-06-01T11:36:14.727Z,6.28
2019-06-01T11:38:44.885Z,5.53
2019-06-01T11:41:18.322Z,5.43
2019-06-01T11:46:15.845Z,5.10
2019-06-01T11:48:45.591Z,4.65
2019-06-01T11:51:15.316Z,4.37
2019-06-01T11:53:45.703Z,5.00
2019-06-01T11:56:15.461Z,4.63
2019-06-01T11:58:46.940Z,4.47
2019-06-01T12:01:16.634Z,4.58
2019-06-01T12:03:46.347Z,4.70
2019-06-01T12:06:17.606Z,4.70
2019-06-01T12:08:47.652Z,4.75
2019-06-01T12:11:17.361Z,4.92
2019-06-01T12:13:47.135Z,5.20
2019-06-01T12:16:16.874Z,4.78
2019-06-01T12:18:46.982Z,4.97
2019-06-01T12:21:16.643Z,5.42
2019-06-01T12:23:47.482Z,5.12
2019-06-01T12:26:18.392Z,5.35
2019-06-01T12:28:48.373Z,5.03
2019-06-01T12:31:18.131Z,4.85
2019-06-01T12:33:48.707Z,4.33
2019-06-01T12:36:18.579Z,4.25
2019-06-01T12:38:51.731Z,4.83
2019-06-01T12:41:23.386Z,5.22
2019-06-01T12:44:13.079Z,4.27
2019-06-01T12:46:43.841Z,4.55
2019-06-01T12:49:13.876Z,5.80
2019-06-01T12:51:44.692Z,5.05
2019-06-01T12:54:14.341Z,5.05
2019-06-01T12:56:44.747Z,5.78
2019-06-01T12:59:14.589Z,5.13
2019-06-01T13:01:45.148Z,4.35
2019-06-01T13:04:14.958Z,5.08
2019-06-01T13:06:45.734Z,5.17
2019-06-01T13:11:45.208Z,4.67
2019-06-01T13:14:15.071Z,5.45
2019-06-01T13:16:55.796Z,4.33
2019-06-01T13:19:17.188Z,4.17
2019-06-01T13:21:47.464Z,4.72
2019-06-01T13:24:17.254Z,4.83
2019-06-01T13:26:47.822Z,4.25
2019-06-01T13:29:18.722Z,4.05
2019-06-01T13:31:48.757Z,4.92
2019-06-01T13:34:18.461Z,4.25
2019-06-01T13:36:48.960Z,4.75
2019-06-01T13:39:18.894Z,4.22
2019-06-01T13:41:49.535Z,4.30
2019-06-01T13:44:21.705Z,4.90
2019-06-01T13:46:51.551Z,4.42
2019-06-01T13:49:21.294Z,5.12
2019-06-01T13:51:52.521Z,5.97
2019-06-01T13:54:22.260Z,5.10
2019-06-01T13:56:53.138Z,4.70
2019-06-01T13:59:22.823Z,6.30
2019-06-01T14:01:53.193Z,5.55
2019-06-01T14:04:22.974Z,5.80
2019-06-01T14:06:53.176Z,5.90
2019-06-01T14:09:22.945Z,5.70
2019-06-01T14:11:53.521Z,5.70
2019-06-01T14:14:23.399Z,5.58
2019-06-01T14:16:53.572Z,5.67
2019-06-01T14:19:23.471Z,5.67
2019-06-01T14:21:54.217Z,5.75
2019-06-01T14:24:24.048Z,5.12
2019-06-01T14:26:54.377Z,6.03
2019-06-01T14:31:57.383Z,5.62
2019-06-01T14:34:27.266Z,5.42
2019-06-01T14:36:57.384Z,5.05
2019-06-01T14:39:27.124Z,4.47
2019-06-01T14:41:57.679Z,4.45
2019-06-01T14:44:29.356Z,4.75
2019-06-01T14:47:03.841Z,5.13
2019-06-01T14:51:59.223Z,4.50
2019-06-01T14:54:28.967Z,5.17
2019-06-01T14:56:58.683Z,5.53
2019-06-01T14:59:30.005Z,5.03
2019-06-01T15:04:40.352Z,5.58
2019-06-01T15:07:10.906Z,6.10
2019-06-01T15:09:40.651Z,5.30
2019-06-01T15:12:10.367Z,6.50
2019-06-01T15:14:40.160Z,6.75
2019-06-01T15:17:09.859Z,6.30
2019-06-01T15:19:41.193Z,7.17
2019-06-01T15:24:40.017Z,6.33
2019-06-01T15:27:10.761Z,6.92
2019-06-01T15:29:40.463Z,5.85
2019-06-01T15:32:10.174Z,6.53
2019-06-01T15:34:39.883Z,5.70
2019-06-01T15:37:09.592Z,5.65
2019-06-01T15:39:39.350Z,6.20
2019-06-01T15:42:09.067Z,6.58
2019-06-01T15:44:38.828Z,11.12
2019-06-01T15:47:08.555Z,10.65
2019-06-01T15:49:38.270Z,8.08
2019-06-01T15:52:07.983Z,8.93
2019-06-01T15:54:37.708Z,10.45
2019-06-01T15:57:07.490Z,10.50
2019-06-01T15:59:37.215Z,11.22
2019-06-01T16:02:06.956Z,48.28
2019-06-01T16:04:36.687Z,34.27
2019-06-01T16:07:06.427Z,11.85
2019-06-01T16:09:42.830Z,7.42
2019-06-01T16:14:36.513Z,6.87
2019-06-01T16:17:06.236Z,6.95
2019-06-01T16:19:36.991Z,7.10
2019-06-01T16:22:06.698Z,8.20
2019-06-01T16:24:37.479Z,8.55
2019-06-01T16:27:07.197Z,7.87
2019-06-01T16:29:44.147Z,7.70
2019-06-01T16:32:11.304Z,9.28
2019-06-01T16:34:42.719Z,14.43
2019-06-01T16:37:12.435Z,55.65
2019-06-01T16:39:58.018Z,14.68
2019-06-01T16:44:45.952Z,7.65
2019-06-01T16:47:19.556Z,8.25
2019-06-01T16:49:49.244Z,7.25
2019-06-01T16:52:19.007Z,6.58
2019-06-01T16:54:48.767Z,6.15
2019-06-01T16:57:18.505Z,7.03
2019-06-01T16:59:48.240Z,7.85
2019-06-01T17:02:18.003Z,7.78
2019-06-01T17:04:47.750Z,7.87
2019-06-01T17:07:17.488Z,7.90
2019-06-01T17:10:21.783Z,7.60
2019-06-01T17:12:43.002Z,6.72
2019-06-01T17:15:09.756Z,8.93
2019-06-01T17:17:39.483Z,9.83
2019-06-01T17:20:28.615Z,9.38
2019-06-01T17:22:59.544Z,9.08
2019-06-01T17:25:29.357Z,8.50
2019-06-01T17:28:00.140Z,10.80
2019-06-01T17:30:31.221Z,17.37
2019-06-01T17:33:02.319Z,9.05
2019-06-01T17:35:35.810Z,10.95
2019-06-01T17:38:07.325Z,19.00
2019-06-01T17:40:42.336Z,14.28
2019-06-01T17:45:38.777Z,8.10
2019-06-01T17:48:22.980Z,7.95
2019-06-01T17:53:08.915Z,14.65
2019-06-01T17:55:41.020Z,8.93
2019-06-01T17:58:12.427Z,9.75
2019-06-01T18:03:12.052Z,9.48
2019-06-01T18:05:42.608Z,8.30
2019-06-01T18:08:12.789Z,10.53
2019-06-01T18:10:53.120Z,49.53
2019-06-01T18:13:15.782Z,10.53
2019-06-01T18:15:45.507Z,10.88
2019-06-01T18:18:15.238Z,9.45
2019-06-01T18:20:45.002Z,9.63
2019-06-01T18:23:14.683Z,9.70
2019-06-01T18:25:44.443Z,9.78
2019-06-01T18:28:20.165Z,9.55
2019-06-01T18:30:50.974Z,10.48
2019-06-01T18:33:21.022Z,9.50
2019-06-01T18:35:50.759Z,10.05
2019-06-01T18:38:20.491Z,10.25
2019-06-01T18:40:50.216Z,9.98
2019-06-01T18:43:20.281Z,9.55
2019-06-01T18:45:50.399Z,9.23
2019-06-01T18:48:20.970Z,9.13
2019-06-01T18:50:50.975Z,10.28
2019-06-01T18:53:21.212Z,9.00
2019-06-01T18:55:51.069Z,10.08
2019-06-01T18:58:20.851Z,8.80
2019-06-01T19:00:50.595Z,9.30
2019-06-01T19:03:20.298Z,9.55
2019-06-01T19:05:50.038Z,9.85
2019-06-01T19:08:19.771Z,10.55
2019-06-01T19:10:50.076Z,10.55
2019-06-01T19:13:20.107Z,10.13
2019-06-01T19:15:49.920Z,9.65
2019-06-01T19:18:19.637Z,10.48
2019-06-01T19:20:49.407Z,10.55
2019-06-01T19:23:22.059Z,10.68
2019-06-01T19:25:51.536Z,11.28
2019-06-01T19:28:21.259Z,10.40
2019-06-01T19:30:51.010Z,10.75
2019-06-01T19:33:20.760Z,9.48
2019-06-01T19:35:52.328Z,11.73
2019-06-01T19:38:22.556Z,11.03
2019-06-01T19:40:52.455Z,10.32
2019-06-01T19:43:22.533Z,10.53
2019-06-01T19:45:52.487Z,10.78
2019-06-01T19:48:22.243Z,10.45
2019-06-01T19:50:52.051Z,10.53
2019-06-01T19:53:21.826Z,11.10
2019-06-01T19:55:51.582Z,10.85
2019-06-01T19:58:22.377Z,13.68
2019-06-01T20:00:52.160Z,18.17
2019-06-01T20:03:23.720Z,16.17
2019-06-01T20:05:56.448Z,14.13
2019-06-01T20:08:26.228Z,14.47
2019-06-01T20:10:55.959Z,16.73
2019-06-01T20:13:25.750Z,16.60
2019-06-01T20:15:55.489Z,12.50
2019-06-01T20:18:25.197Z,12.43
2019-06-01T20:20:54.965Z,12.03
2019-06-01T20:23:25.067Z,11.18
2019-06-01T20:26:36.823Z,10.93
2019-06-01T20:28:53.811Z,10.65
2019-06-01T20:31:23.601Z,12.07
2019-06-01T20:33:56.373Z,11.93
2019-06-01T20:36:26.451Z,10.70
2019-06-01T20:38:56.203Z,11.45
2019-06-01T20:41:31.001Z,11.68
2019-06-01T20:44:03.805Z,10.98
2019-06-01T20:46:35.850Z,12.00
2019-06-01T20:49:05.555Z,11.10
2019-06-01T20:51:35.338Z,12.00
2019-06-01T20:54:05.051Z,11.30
2019-06-01T20:56:34.830Z,12.43
2019-06-01T20:59:18.706Z,11.28
2019-06-01T21:01:52.982Z,11.35
2019-06-01T21:04:22.702Z,12.37
2019-06-01T21:06:54.633Z,12.03
2019-06-01T21:09:24.467Z,12.50
2019-06-01T21:11:54.495Z,12.58
2019-06-01T21:14:24.232Z,12.43
2019-06-01T21:16:54.060Z,12.65
2019-06-01T21:19:24.475Z,14.20
2019-06-01T21:21:54.335Z,12.98
2019-06-01T21:24:25.222Z,15.88
2019-06-01T21:26:55.189Z,20.10
2019-06-01T21:29:25.232Z,12.23
2019-06-01T21:31:55.544Z,18.45
2019-06-01T21:34:25.509Z,15.98
2019-06-01T21:36:55.271Z,12.75
2019-06-01T21:39:25.536Z,11.85
2019-06-01T21:41:55.775Z,12.65
2019-06-01T21:44:25.771Z,13.88
2019-06-01T21:46:55.615Z,18.48
2019-06-01T21:49:25.934Z,18.05
2019-06-01T21:51:55.912Z,14.07
2019-06-01T21:54:26.351Z,13.80
2019-06-01T21:56:59.952Z,12.15
2019-06-01T21:59:29.671Z,12.90
2019-06-01T22:01:59.487Z,14.03
2019-06-01T22:04:29.212Z,100.78
2019-06-01T22:06:58.935Z,21.95
2019-06-01T22:09:28.788Z,19.00
2019-06-01T22:11:58.522Z,40.03
2019-06-01T22:14:28.273Z,19.30
2019-06-01T22:16:57.996Z,13.88
2019-06-01T22:19:28.096Z,14.13
2019-06-01T22:21:58.095Z,17.95
2019-06-01T22:24:28.289Z,15.63
2019-06-01T22:26:58.047Z,15.50
2019-06-01T22:29:28.564Z,13.22
2019-06-01T22:31:58.552Z,14.13
2019-06-01T22:34:29.323Z,25.52
2019-06-01T22:36:59.126Z,14.75
2019-06-01T22:39:29.848Z,16.15
2019-06-01T22:42:05.768Z,16.62
2019-06-01T22:44:36.943Z,15.45
2019-06-01T22:47:06.719Z,15.60
2019-06-01T22:49:36.519Z,13.93
2019-06-01T22:52:06.322Z,16.27
2019-06-01T22:54:36.034Z,16.65
2019-06-01T22:57:06.016Z,17.48
2019-06-01T22:59:35.923Z,17.10
2019-06-01T23:02:05.643Z,17.40
2019-06-01T23:04:35.371Z,17.67
2019-06-01T23:07:05.240Z,23.30
2019-06-01T23:09:35.230Z,27.32
2019-06-01T23:12:05.121Z,22.70
2019-06-01T23:14:34.798Z,17.57
2019-06-01T23:17:04.527Z,19.77
2019-06-01T23:19:34.252Z,29.87
2019-06-01T23:22:04.210Z,22.87
2019-06-01T23:24:34.006Z,22.58
2019-06-01T23:27:07.656Z,24.43
2019-06-01T23:29:37.607Z,24.63
2019-06-01T23:32:07.422Z,29.90
2019-06-01T23:34:37.567Z,23.92
2019-06-01T23:37:07.656Z,23.15
2019-06-01T23:39:38.569Z,23.05
2019-06-01T23:42:09.869Z,22.20
2019-06-01T23:44:39.871Z,23.73
2019-06-01T23:47:10.447Z,23.15
2019-06-01T23:49:40.243Z,23.52
2019-06-01T23:52:10.509Z,27.32
2019-06-01T23:54:40.726Z,59.85
2019-06-01T23:57:10.764Z,35.23
2019-06-01T23:59:41.295Z,27.97
